createdAt,value
2023-02-06T14:47:01.295Z,79.04
2023-02-06T14:49:48.280Z,79.24
2023-02-06T14:52:34.489Z,79.31
2023-02-06T14:55:32.711Z,78.80
2023-02-06T14:58:28.117Z,79.59
2023-02-06T15:01:27.772Z,79.89
2023-02-06T15:04:19.268Z,80.16
2023-02-06T15:07:05.026Z,79.44
2023-02-06T15:09:59.383Z,79.22
2023-02-06T15:12:54.027Z,79.11
2023-02-06T15:15:53.335Z,78.30
2023-02-06T15:18:38.499Z,78.29
2023-02-06T15:21:23.791Z,78.22
2023-02-06T15:24:23.681Z,78.75
2023-02-06T15:27:28.316Z,79.13
2023-02-06T15:30:28.364Z,78.76
2023-02-06T15:33:21.370Z,78.39
2023-02-06T15:36:07.954Z,78.85
2023-02-06T15:38:53.590Z,78.93
2023-02-06T15:41:42.417Z,79.40
2023-02-06T15:44:35.050Z,80.04
2023-02-06T15:47:21.362Z,80.11
2023-02-06T15:50:11.919Z,80.55
2023-02-06T15:52:57.347Z,80.65
2023-02-06T15:55:52.002Z,80.08
2023-02-06T15:58:37.841Z,80.47
2023-02-06T16:01:24.693Z,80.70
2023-02-06T16:04:24.161Z,80.23
2023-02-06T16:07:28.703Z,80.50
2023-02-06T16:10:24.937Z,80.34
2023-02-06T16:13:16.336Z,80.77
2023-02-06T16:16:04.042Z,84.06
2023-02-06T16:18:53.735Z,84.64
2023-02-06T16:21:42.090Z,83.65
2023-02-06T16:24:27.907Z,84.06
2023-02-06T16:27:20.356Z,82.89
2023-02-06T16:30:05.993Z,83.33
2023-02-06T16:32:54.677Z,82.17
2023-02-06T16:35:40.429Z,81.41
2023-02-06T16:38:25.835Z,81.57
2023-02-06T16:41:38.766Z,82.56
2023-02-06T16:44:36.127Z,82.43
2023-02-06T16:47:29.678Z,82.62
2023-02-06T16:50:21.840Z,83.46
2023-02-06T16:53:19.098Z,83.55
2023-02-06T16:56:14.217Z,83.92
2023-02-06T16:58:59.548Z,83.91
2023-02-06T17:01:44.757Z,84.58
2023-02-06T17:04:30.409Z,84.61
2023-02-06T17:07:19.404Z,84.46
2023-02-06T17:10:05.965Z,84.55
2023-02-06T17:12:52.199Z,84.92
2023-02-06T17:15:39.225Z,84.94
2023-02-06T17:18:24.399Z,84.49
2023-02-06T17:21:13.846Z,85.20
2023-02-06T17:24:02.491Z,84.99
2023-02-06T17:26:51.014Z,84.99
2023-02-06T17:29:36.565Z,84.99
2023-02-06T17:32:22.864Z,84.86
2023-02-06T17:35:09.395Z,84.99
2023-02-06T17:37:54.875Z,85.25
2023-02-06T17:40:41.326Z,85.15
2023-02-06T17:43:26.891Z,85.36
2023-02-06T17:46:13.184Z,85.25
2023-02-06T17:48:58.828Z,85.88
2023-02-06T17:51:45.139Z,85.76
2023-02-06T17:54:30.271Z,85.52
2023-02-06T17:57:15.412Z,85.42
2023-02-06T18:00:00.983Z,85.19
2023-02-06T18:02:46.168Z,85.14
2023-02-06T18:05:31.942Z,85.06
2023-02-06T18:08:18.271Z,84.98
2023-02-06T18:11:15.170Z,85.45
2023-02-06T18:14:00.574Z,85.71
2023-02-06T18:16:47.051Z,85.05
2023-02-06T18:19:40.584Z,85.36
2023-02-06T18:22:26.396Z,84.89
2023-02-06T18:25:14.706Z,84.58
2023-02-06T18:28:00.251Z,84.87
2023-02-06T18:30:46.834Z,84.78
2023-02-06T18:33:35.110Z,84.67
2023-02-06T18:36:21.397Z,84.62
2023-02-06T18:39:07.465Z,84.85
2023-02-06T18:42:11.645Z,84.38
2023-02-06T18:44:56.733Z,84.92
2023-02-06T18:47:42.373Z,84.71
2023-02-06T18:50:28.020Z,84.21
2023-02-06T18:53:13.395Z,84.68
2023-02-06T18:56:00.591Z,85.17
2023-02-06T18:58:46.391Z,84.21
2023-02-06T19:01:32.687Z,83.83
2023-02-06T19:04:19.090Z,83.45
2023-02-06T19:07:04.220Z,83.64
2023-02-06T19:09:49.597Z,83.83
2023-02-06T19:12:35.004Z,84.04
2023-02-06T19:15:20.415Z,83.56
2023-02-06T19:18:06.046Z,83.12
2023-02-06T19:20:51.378Z,83.05
2023-02-06T19:23:38.171Z,83.05
2023-02-06T19:26:23.982Z,83.44
2023-02-06T19:29:11.157Z,83.66
2023-02-06T19:31:56.490Z,83.71
2023-02-06T19:34:42.133Z,83.49
2023-02-06T19:37:27.669Z,83.44
2023-02-06T19:40:13.143Z,83.30
2023-02-06T19:42:58.656Z,83.34
2023-02-06T19:45:44.031Z,83.50
2023-02-06T19:48:29.431Z,83.88
2023-02-06T19:51:20.745Z,83.11
2023-02-06T19:54:06.457Z,83.71
2023-02-06T19:56:51.997Z,83.80
2023-02-06T19:59:37.058Z,84.03
2023-02-06T20:02:22.758Z,84.00
2023-02-06T20:05:08.500Z,84.25
2023-02-06T20:07:53.940Z,83.85
2023-02-06T20:10:39.297Z,84.00
2023-02-06T20:13:24.601Z,83.99
2023-02-06T20:16:17.285Z,84.58
2023-02-06T20:19:15.392Z,84.37
2023-02-06T20:22:01.262Z,99.63
2023-02-06T20:24:46.654Z,100.00
2023-02-06T20:27:31.769Z,95.53
2023-02-06T20:30:18.728Z,90.97
2023-02-06T20:33:04.434Z,87.75
2023-02-06T20:35:49.571Z,86.41
2023-02-06T20:38:35.683Z,85.73
2023-02-06T20:41:23.582Z,85.51
2023-02-06T20:44:10.834Z,84.86
2023-02-06T20:46:56.167Z,85.52
2023-02-06T20:49:41.966Z,85.65
2023-02-06T20:52:27.483Z,85.79
2023-02-06T20:55:12.651Z,85.85
2023-02-06T20:57:58.121Z,85.46
2023-02-06T21:00:43.500Z,85.30
2023-02-06T21:03:28.501Z,85.17
2023-02-06T21:06:14.697Z,85.11
2023-02-06T21:09:01.084Z,85.30
2023-02-06T21:11:49.173Z,84.85
2023-02-06T21:14:34.509Z,85.06
2023-02-06T21:17:19.965Z,84.52
2023-02-06T21:20:06.493Z,84.49
2023-02-06T21:22:52.804Z,84.16
2023-02-06T21:25:38.894Z,84.39
2023-02-06T21:28:24.377Z,83.83
2023-02-06T21:31:14.389Z,83.68
2023-02-06T21:34:21.455Z,83.71
2023-02-06T21:37:06.654Z,83.89
2023-02-06T21:39:52.177Z,83.91
2023-02-06T21:42:37.440Z,84.09
2023-02-06T21:45:22.794Z,83.84
2023-02-06T21:48:08.935Z,83.99
2023-02-06T21:50:54.596Z,84.14
2023-02-06T21:53:40.923Z,83.80
2023-02-06T21:56:27.740Z,83.50
2023-02-06T21:59:13.340Z,83.28
2023-02-06T22:01:58.672Z,83.36
2023-02-06T22:04:43.964Z,83.34
2023-02-06T22:07:28.990Z,83.06
2023-02-06T22:10:14.562Z,83.17
2023-02-06T22:12:59.819Z,82.77
2023-02-06T22:15:49.761Z,83.21
2023-02-06T22:18:35.549Z,83.55
2023-02-06T22:21:22.997Z,83.90
2023-02-06T22:24:10.493Z,84.01
2023-02-06T22:26:56.180Z,83.63
2023-02-06T22:29:41.522Z,84.11
2023-02-06T22:32:27.186Z,83.79
2023-02-06T22:35:13.973Z,85.28
2023-02-06T22:37:59.809Z,92.80
2023-02-06T22:40:45.219Z,87.39
2023-02-06T22:43:31.959Z,85.58
2023-02-06T22:46:20.961Z,84.74
2023-02-06T22:49:07.365Z,84.81
2023-02-06T22:51:52.703Z,84.62
2023-02-06T22:54:37.929Z,84.18
2023-02-06T22:57:23.764Z,83.85
2023-02-06T23:00:11.567Z,83.47
2023-02-06T23:02:56.648Z,83.37
2023-02-06T23:05:41.979Z,83.31
2023-02-06T23:08:26.886Z,83.11
2023-02-06T23:11:13.272Z,82.90
2023-02-06T23:14:02.349Z,82.54
2023-02-06T23:16:47.864Z,82.14
2023-02-06T23:19:33.444Z,82.10
2023-02-06T23:22:18.757Z,82.13
2023-02-06T23:25:04.286Z,80.91
2023-02-06T23:27:49.515Z,81.43
2023-02-06T23:30:34.961Z,80.34
2023-02-06T23:33:21.326Z,79.98
2023-02-06T23:36:10.757Z,79.94
2023-02-06T23:38:56.405Z,79.67
2023-02-06T23:41:41.986Z,79.21
2023-02-06T23:44:27.709Z,79.37
2023-02-06T23:47:12.794Z,79.01
2023-02-06T23:49:58.294Z,78.96
2023-02-06T23:52:43.999Z,79.12
2023-02-06T23:55:30.567Z,78.50
2023-02-06T23:58:16.047Z,78.29
